Time;durP1;ratioP1;P1;durP2;ratioP2;P2;SDS_P1;SDS_P2;PMS_P1;PMS_P2;Temp;Humidity;BMP_temperature;BMP_pressure;BME280_temperature;BME280_humidity;BME280_pressure;Samples;Min_cycle;Max_cycle;Signal;HPM_P1;HPM_P2
2023/03/21 00:00:41;;;;;;;6.90;4.40;;;;;;;5.63;100.00;94095.84;5058663;28;20028;-64
2023/03/21 00:03:07;;;;;;;6.30;3.87;;;;;;;5.58;100.00;94086.09;5060315;28;20040;-64
2023/03/21 00:05:39;;;;;;;5.28;2.95;;;;;;;5.51;100.00;94086.03;5070339;28;20381;-65
2023/03/21 00:08:07;;;;;;;5.30;3.40;;;;;;;5.45;100.00;94093.00;5059402;28;20082;-64
2023/03/21 00:10:34;;;;;;;5.70;3.50;;;;;;;5.36;100.00;94081.66;5069516;28;20097;-64
2023/03/21 00:13:14;;;;;;;6.07;4.00;;;;;;;5.26;100.00;94085.09;5064275;28;20049;-64
2023/03/21 00:15:53;;;;;;;5.77;3.27;;;;;;;5.19;100.00;94080.34;5072117;28;20028;-64
2023/03/21 00:18:35;;;;;;;5.38;3.30;;;;;;;5.11;100.00;94084.97;5070803;28;20053;-64
2023/03/21 00:21:04;;;;;;;6.28;3.20;;;;;;;5.05;100.00;94070.16;5060550;28;20440;-66
2023/03/21 00:23:51;;;;;;;19.38;11.27;;;;;;;4.98;100.00;94067.38;5051878;28;20036;-65
2023/03/21 00:26:17;;;;;;;10.38;6.28;;;;;;;4.92;100.00;94074.31;5064080;28;20503;-64
2023/03/21 00:28:44;;;;;;;7.23;4.60;;;;;;;4.80;100.00;94069.94;5071699;28;20036;-68
2023/03/21 00:31:11;;;;;;;5.82;3.40;;;;;;;4.73;100.00;94065.22;5071262;28;20044;-65
2023/03/21 00:33:38;;;;;;;5.53;2.90;;;;;;;4.64;100.00;94070.19;5067021;28;20037;-64
2023/03/21 00:36:06;;;;;;;6.50;3.15;;;;;;;4.63;100.00;94062.38;5051015;28;20040;-65
2023/03/21 00:38:35;;;;;;;5.10;3.08;;;;;;;4.59;100.00;94073.25;5071687;28;20037;-64
2023/03/21 00:41:07;;;;;;;7.03;3.20;;;;;;;4.48;100.00;94064.97;5062048;28;20497;-67
2023/03/21 00:43:50;;;;;;;5.68;3.60;;;;;;;4.45;100.00;94065.72;5070155;28;20109;-64
2023/03/21 00:46:17;;;;;;;5.85;3.30;;;;;;;4.49;100.00;94065.78;5064601;28;20087;-64
2023/03/21 00:48:45;;;;;;;6.88;4.18;;;;;;;4.45;100.00;94059.50;5051442;28;20358;-63
2023/03/21 00:51:25;;;;;;;8.30;4.75;;;;;;;4.37;100.00;94062.16;5077768;28;20047;-64
2023/03/21 00:53:56;;;;;;;7.33;3.77;;;;;;;4.34;100.00;94052.00;5057931;28;20041;-64
2023/03/21 00:56:23;;;;;;;6.50;3.72;;;;;;;4.33;100.00;94058.63;5061573;28;20634;-64
2023/03/21 00:58:50;;;;;;;4.82;2.80;;;;;;;4.26;100.00;94058.53;5062691;28;20044;-64
2023/03/21 01:01:17;;;;;;;6.82;2.58;;;;;;;4.29;100.00;94060.50;5050644;28;20060;-64
2023/03/21 01:03:46;;;;;;;5.50;2.92;;;;;;;4.27;100.00;94054.66;5064571;28;20062;-63
2023/03/21 01:06:18;;;;;;;9.63;3.60;;;;;;;4.31;100.00;94060.94;5057133;28;20048;-64
2023/03/21 01:08:46;;;;;;;5.10;3.15;;;;;;;4.37;100.00;94055.94;5071145;28;20492;-64
2023/03/21 01:11:22;;;;;;;5.40;3.35;;;;;;;4.39;100.00;94059.84;5067892;28;20776;-64
2023/03/21 01:13:49;;;;;;;7.20;3.47;;;;;;;4.37;100.00;94045.84;5070858;28;20032;-64
2023/03/21 01:16:25;;;;;;;6.78;4.10;;;;;;;4.45;100.00;94045.91;5064878;28;20033;-65
2023/03/21 01:18:52;;;;;;;7.20;3.60;;;;;;;4.49;100.00;94057.63;5049221;28;20045;-66
2023/03/21 01:21:19;;;;;;;5.28;3.28;;;;;;;4.33;100.00;94050.47;5058731;28;21536;-65
2023/03/21 01:23:46;;;;;;;5.10;3.53;;;;;;;4.19;100.00;94047.59;5055031;28;20039;-64
2023/03/21 01:26:14;;;;;;;6.28;3.45;;;;;;;4.34;100.00;94052.00;5057794;28;20081;-64
2023/03/21 01:28:43;;;;;;;5.70;3.38;;;;;;;4.39;100.00;94048.97;5070545;28;20045;-64
2023/03/21 01:31:12;;;;;;;7.30;3.50;;;;;;;4.41;100.00;94048.63;5065732;28;20094;-64
2023/03/21 01:33:39;;;;;;;7.65;3.10;;;;;;;4.44;100.00;94042.41;5061919;28;20491;-64
2023/03/21 01:36:15;;;;;;;9.05;6.22;;;;;;;4.34;100.00;94040.38;5069822;28;20038;-64
2023/03/21 01:38:44;;;;;;;8.02;4.55;;;;;;;4.21;100.00;94042.56;5078292;28;20032;-64
2023/03/21 01:41:17;;;;;;;18.95;10.50;;;;;;;4.26;100.00;94031.38;5071117;28;20485;-64
2023/03/21 01:43:46;;;;;;;7.47;3.87;;;;;;;4.31;100.00;94041.13;5070434;28;20048;-64
2023/03/21 01:46:40;;;;;;;7.68;3.70;;;;;;;4.33;100.00;94045.03;5051356;28;20041;-65
2023/03/21 01:49:34;;;;;;;12.30;5.93;;;;;;;4.35;100.00;94039.22;5049702;28;22560;-64
2023/03/21 01:52:09;;;;;;;35.40;11.50;;;;;;;4.41;100.00;94032.31;5079831;28;20044;-65
2023/03/21 01:54:44;;;;;;;20.88;8.02;;;;;;;4.48;100.00;94028.88;5070015;28;20043;-64
2023/03/21 01:57:34;;;;;;;19.77;7.83;;;;;;;4.52;100.00;94032.41;5069702;28;20051;-64
2023/03/21 02:00:15;;;;;;;31.52;11.73;;;;;;;4.52;100.00;94025.03;5057892;28;20362;-64
2023/03/21 02:02:50;;;;;;;19.80;7.88;;;;;;;4.49;100.00;94030.44;5069737;28;20040;-64
2023/03/21 02:05:26;;;;;;;6.93;3.70;;;;;;;4.07;100.00;94026.91;5057479;28;20036;-67
2023/03/21 02:07:53;;;;;;;6.47;3.53;;;;;;;3.93;100.00;94027.53;5069336;28;20455;-66
2023/03/21 02:10:20;;;;;;;5.20;3.40;;;;;;;3.97;100.00;94020.19;5054551;28;20450;-64
2023/03/21 02:12:47;;;;;;;6.50;3.78;;;;;;;4.00;100.00;94022.19;5069856;28;20036;-63
2023/03/21 02:15:14;;;;;;;5.68;3.63;;;;;;;4.02;100.00;94021.00;5069100;28;20047;-64
2023/03/21 02:18:03;;;;;;;6.75;3.03;;;;;;;4.08;100.00;94025.75;5068091;28;20047;-67
2023/03/21 02:20:57;;;;;;;6.10;3.72;;;;;;;4.03;100.00;94011.72;5065483;28;20806;-64
2023/03/21 02:24:03;;;;;;;9.17;3.70;;;;;;;3.79;100.00;94017.28;5062395;28;20497;-65
2023/03/21 02:26:36;;;;;;;6.20;3.50;;;;;;;3.96;100.00;94021.38;5101003;28;20044;-64
2023/03/21 02:29:20;;;;;;;8.23;3.67;;;;;;;4.06;100.00;94016.41;5068790;28;20074;-65
2023/03/21 02:31:59;;;;;;;7.57;3.30;;;;;;;4.08;100.00;94012.16;5058936;28;20043;-63
2023/03/21 02:35:03;;;;;;;7.25;3.63;;;;;;;4.09;100.00;94000.16;5047413;28;20393;-64
2023/03/21 02:37:36;;;;;;;5.57;3.20;;;;;;;4.05;100.00;93996.63;5064811;28;20473;-64
2023/03/21 02:40:12;;;;;;;5.70;3.35;;;;;;;4.05;100.00;93995.84;5061211;28;20646;-65
2023/03/21 02:43:20;;;;;;;6.47;3.65;;;;;;;4.05;100.00;94001.28;5069235;28;20047;-64
2023/03/21 02:46:15;;;;;;;8.15;5.05;;;;;;;4.15;100.00;94001.38;5051186;28;20048;-65
2023/03/21 02:48:50;;;;;;;8.93;5.00;;;;;;;4.18;100.00;94000.63;5048675;28;20591;-64
2023/03/21 02:51:21;;;;;;;10.57;6.33;;;;;;;4.23;100.00;94006.91;5074905;28;20415;-63
2023/03/21 02:53:54;;;;;;;8.35;5.13;;;;;;;4.25;100.00;94001.88;5056812;28;20599;-64
2023/03/21 02:56:41;;;;;;;7.88;4.45;;;;;;;4.29;100.00;94008.91;5056237;28;20049;-65
2023/03/21 02:59:09;;;;;;;7.82;4.60;;;;;;;4.38;100.00;94008.59;5068976;28;20473;-66
2023/03/21 03:01:36;;;;;;;7.85;4.50;;;;;;;4.40;100.00;93996.19;5070656;28;20036;-65
2023/03/21 03:04:03;;;;;;;6.77;4.17;;;;;;;4.30;100.00;94001.53;5059375;28;20036;-64
2023/03/21 03:06:47;;;;;;;6.97;4.20;;;;;;;4.03;100.00;94003.59;5060042;28;20039;-65
2023/03/21 03:09:48;;;;;;;7.18;4.22;;;;;;;4.10;100.00;93996.28;5058167;28;20094;-64
2023/03/21 03:12:36;;;;;;;6.82;3.72;;;;;;;4.28;100.00;93998.41;5060262;28;20044;-64
2023/03/21 03:15:16;;;;;;;6.95;4.10;;;;;;;4.34;100.00;93996.91;5061433;28;20040;-64
2023/03/21 03:18:18;;;;;;;6.97;4.07;;;;;;;4.45;100.00;93997.78;5073318;28;20036;-64
2023/03/21 03:20:56;;;;;;;6.25;4.07;;;;;;;4.49;100.00;93993.19;5032198;28;20322;-63
2023/03/21 03:23:36;;;;;;;7.00;3.90;;;;;;;4.50;100.00;94002.88;5032190;28;20285;-61
2023/03/21 03:26:40;;;;;;;6.90;4.30;;;;;;;4.49;100.00;93995.13;5025153;28;20050;-65
2023/03/21 03:29:12;;;;;;;7.70;4.30;;;;;;;4.51;100.00;93998.25;5018117;28;20037;-65
2023/03/21 03:31:44;;;;;;;8.60;4.57;;;;;;;4.23;100.00;93993.31;5020408;28;20301;-63
2023/03/21 03:34:25;;;;;;;6.63;4.05;;;;;;;4.06;100.00;93989.25;5031264;28;20053;-63
2023/03/21 03:36:56;;;;;;;6.53;4.00;;;;;;;4.21;100.00;93990.97;5031530;28;20098;-64
2023/03/21 03:39:30;;;;;;;6.40;4.07;;;;;;;4.35;100.00;93982.94;5039952;28;20455;-63
2023/03/21 03:42:02;;;;;;;9.20;5.35;;;;;;;4.42;100.00;93987.66;5031457;28;20072;-67
2023/03/21 03:44:47;;;;;;;7.30;4.40;;;;;;;4.47;100.00;93990.06;5032026;28;20041;-63
2023/03/21 03:47:26;;;;;;;7.20;4.78;;;;;;;4.45;100.00;93980.69;5031825;28;20076;-64
2023/03/21 03:50:02;;;;;;;7.25;4.30;;;;;;;4.32;100.00;93978.25;5034049;28;20046;-63
2023/03/21 03:52:34;;;;;;;9.07;4.28;;;;;;;4.42;100.00;93984.16;5035181;28;20041;-65
2023/03/21 03:55:12;;;;;;;7.22;4.53;;;;;;;4.37;100.00;93971.72;5031904;28;20050;-63
2023/03/21 03:57:40;;;;;;;6.37;4.00;;;;;;;4.34;100.00;93975.94;5032611;28;20034;-63
2023/03/21 04:00:13;;;;;;;7.22;4.32;;;;;;;4.32;100.00;93970.09;5031621;28;20044;-63
2023/03/21 04:02:40;;;;;;;7.85;5.03;;;;;;;4.20;100.00;93973.91;5032363;28;20095;-63
2023/03/21 04:05:07;;;;;;;7.78;4.90;;;;;;;4.14;100.00;93969.94;5031670;28;20041;-67
2023/03/21 04:07:34;;;;;;;6.75;4.50;;;;;;;3.99;100.00;93974.44;5032014;28;20397;-66
2023/03/21 04:10:02;;;;;;;7.33;4.43;;;;;;;4.06;100.00;93975.66;5031718;28;20038;-62
2023/03/21 04:12:28;;;;;;;7.90;4.55;;;;;;;4.11;100.00;93973.41;5031931;28;20057;-63
2023/03/21 04:14:55;;;;;;;9.85;4.80;;;;;;;4.09;100.00;93967.56;5031640;28;20039;-63
2023/03/21 04:17:38;;;;;;;6.57;4.28;;;;;;;4.05;100.00;93977.63;5032034;28;20037;-63
2023/03/21 04:20:06;;;;;;;8.18;4.50;;;;;;;3.98;100.00;93966.66;5059666;28;20090;-63
2023/03/21 04:22:40;;;;;;;24.90;13.63;;;;;;;3.94;100.00;93974.00;5066372;28;20036;-63
2023/03/21 04:25:08;;;;;;;10.45;6.43;;;;;;;3.91;100.00;93969.31;5061781;28;20339;-65
2023/03/21 04:27:35;;;;;;;8.90;4.90;;;;;;;3.87;100.00;93969.28;5051875;28;20617;-64
2023/03/21 04:30:03;;;;;;;8.60;5.10;;;;;;;3.87;100.00;93968.50;5071304;28;20411;-63
2023/03/21 04:32:32;;;;;;;8.10;5.10;;;;;;;3.87;100.00;93969.28;5057658;28;20535;-67
2023/03/21 04:34:59;;;;;;;7.37;4.67;;;;;;;3.86;100.00;93977.78;5070735;28;20044;-64
2023/03/21 04:37:26;;;;;;;8.63;5.20;;;;;;;3.82;100.00;93968.81;5071468;28;20035;-63
2023/03/21 04:39:53;;;;;;;8.60;5.55;;;;;;;3.77;100.00;93976.16;5084329;28;20039;-63
2023/03/21 04:42:20;;;;;;;9.10;5.30;;;;;;;3.74;100.00;93970.66;5068607;28;20741;-63
2023/03/21 04:44:48;;;;;;;9.65;5.32;;;;;;;3.59;100.00;93980.59;5071260;28;20033;-64
2023/03/21 04:47:15;;;;;;;10.87;5.63;;;;;;;3.46;100.00;93974.63;5071063;28;20044;-63
2023/03/21 04:49:42;;;;;;;8.07;5.10;;;;;;;3.47;100.00;93988.97;5071182;28;20412;-64
2023/03/21 04:52:09;;;;;;;7.47;4.80;;;;;;;3.41;100.00;93980.34;5074538;28;20036;-66
2023/03/21 04:54:36;;;;;;;8.18;4.53;;;;;;;3.39;100.00;93980.72;5057947;28;20043;-63
2023/03/21 04:57:03;;;;;;;7.63;4.63;;;;;;;3.43;100.00;93982.72;5070920;28;20137;-65
2023/03/21 04:59:30;;;;;;;9.37;4.77;;;;;;;3.40;100.00;93979.59;5058431;28;20037;-62
2023/03/21 05:01:57;;;;;;;8.25;4.70;;;;;;;3.37;100.00;93974.88;5065749;28;20037;-64
2023/03/21 05:04:26;;;;;;;8.40;5.22;;;;;;;3.42;100.00;93973.00;5058873;28;20037;-63
2023/03/21 05:06:53;;;;;;;8.82;5.10;;;;;;;3.49;100.00;93979.31;5070753;28;20396;-67
2023/03/21 05:09:21;;;;;;;9.35;5.68;;;;;;;3.54;100.00;93978.19;5068495;28;20644;-64
2023/03/21 05:11:48;;;;;;;9.20;5.47;;;;;;;3.51;100.00;93977.00;5070970;28;20033;-66
2023/03/21 05:14:21;;;;;;;8.75;5.53;;;;;;;3.56;100.00;93975.88;5062242;28;20043;-64
2023/03/21 05:16:57;;;;;;;9.60;6.28;;;;;;;3.59;100.00;93975.94;5050813;28;20037;-63
2023/03/21 05:19:39;;;;;;;11.27;6.80;;;;;;;3.67;100.00;93976.03;5056068;28;20787;-66
2023/03/21 05:22:09;;;;;;;14.32;7.03;;;;;;;3.55;100.00;93974.34;5068088;28;20037;-63
2023/03/21 05:24:38;;;;;;;19.70;11.07;;;;;;;3.52;100.00;93978.56;5057954;28;20037;-64
2023/03/21 05:27:04;;;;;;;41.15;22.55;;;;;;;3.50;100.00;93977.34;5055172;28;20102;-64
2023/03/21 05:29:32;;;;;;;36.28;21.58;;;;;;;3.56;100.00;93984.81;5057270;28;20048;-63
2023/03/21 05:31:59;;;;;;;18.63;10.48;;;;;;;3.59;100.00;93981.34;5054635;28;20041;-65
2023/03/21 05:34:27;;;;;;;15.40;8.43;;;;;;;3.60;100.00;93982.13;5056091;28;20380;-63
2023/03/21 05:36:54;;;;;;;10.97;6.50;;;;;;;3.56;100.00;93978.59;5069158;28;20037;-65
2023/03/21 05:39:21;;;;;;;11.63;5.93;;;;;;;3.60;100.00;93982.13;5071995;28;20105;-63
2023/03/21 05:41:48;;;;;;;10.43;5.30;;;;;;;3.63;100.00;93970.56;5056157;28;20033;-63
2023/03/21 05:44:14;;;;;;;10.48;6.47;;;;;;;3.63;100.00;93969.78;5066826;28;20036;-63
2023/03/21 05:46:42;;;;;;;9.05;5.40;;;;;;;3.50;100.00;93974.66;5068608;28;20044;-62
2023/03/21 05:49:10;;;;;;;56.77;37.20;;;;;;;3.30;100.00;93966.66;5063704;28;20048;-63
2023/03/21 05:51:37;;;;;;;46.03;29.13;;;;;;;3.31;100.00;93964.72;5069389;28;20037;-63
2023/03/21 05:54:03;;;;;;;16.52;9.40;;;;;;;3.44;100.00;93973.41;5060246;28;20428;-63
2023/03/21 05:56:30;;;;;;;10.95;7.50;;;;;;;3.48;100.00;93966.09;5066218;28;20518;-65
2023/03/21 05:58:57;;;;;;;11.00;6.85;;;;;;;3.49;100.00;93967.66;5069355;28;20435;-64
2023/03/21 06:01:24;;;;;;;12.50;7.00;;;;;;;3.63;100.00;93970.56;5069566;28;20044;-63
2023/03/21 06:03:51;;;;;;;13.55;6.97;;;;;;;3.78;100.00;93980.44;5054487;28;20097;-62
2023/03/21 06:06:17;;;;;;;10.55;6.47;;;;;;;3.83;100.00;93983.97;5069370;28;20370;-64
2023/03/21 06:08:44;;;;;;;12.27;6.80;;;;;;;3.91;100.00;93980.94;5069368;28;20048;-64
2023/03/21 06:11:29;;;;;;;11.32;6.78;;;;;;;3.94;100.00;93984.84;5058999;28;20045;-66
2023/03/21 06:13:56;;;;;;;21.97;11.50;;;;;;;3.92;100.00;93977.06;5049224;28;20041;-65
2023/03/21 06:16:23;;;;;;;18.45;9.10;;;;;;;3.83;100.00;93976.59;5049588;28;20052;-67
2023/03/21 06:18:49;;;;;;;27.73;13.27;;;;;;;3.88;100.00;93980.91;5051864;28;20049;-66
2023/03/21 06:21:16;;;;;;;32.92;14.80;;;;;;;4.14;100.00;93980.03;5060516;28;20085;-67
2023/03/21 06:23:43;;;;;;;29.50;13.60;;;;;;;4.24;100.00;93967.69;5063081;28;20123;-66
2023/03/21 06:26:10;;;;;;;56.63;23.57;;;;;;;4.36;100.00;93973.63;5068845;28;20044;-66
2023/03/21 06:28:36;;;;;;;37.17;18.15;;;;;;;4.42;100.00;93979.50;5068854;28;20538;-65
2023/03/21 06:31:03;;;;;;;22.98;13.45;;;;;;;4.57;100.00;93985.88;5068547;28;20504;-66
2023/03/21 06:33:30;;;;;;;28.85;13.63;;;;;;;4.71;100.00;93982.47;5069415;28;20044;-67
2023/03/21 06:35:58;;;;;;;23.75;10.75;;;;;;;4.72;100.00;93990.25;5053852;28;20048;-65
2023/03/21 06:38:25;;;;;;;34.00;14.23;;;;;;;4.68;100.00;93988.66;5075873;28;20036;-65
2023/03/21 06:40:52;;;;;;;52.17;21.23;;;;;;;4.65;100.00;93987.50;5065796;28;20037;-67
2023/03/21 06:43:19;;;;;;;40.17;17.00;;;;;;;4.78;100.00;93987.97;5059031;28;20934;-65
2023/03/21 06:45:46;;;;;;;23.90;12.23;;;;;;;5.00;100.00;93981.53;5068876;28;20614;-63
2023/03/21 06:48:12;;;;;;;22.45;10.65;;;;;;;5.26;100.00;93971.59;5059207;28;20049;-63
2023/03/21 06:50:39;;;;;;;23.97;11.90;;;;;;;5.22;100.00;93973.50;5070061;28;20338;-66
2023/03/21 06:53:06;;;;;;;22.10;11.32;;;;;;;5.56;100.00;93973.31;5068699;28;20040;-65
2023/03/21 06:55:33;;;;;;;34.65;17.75;;;;;;;5.58;100.00;93968.25;5059195;28;20040;-63
2023/03/21 06:57:59;;;;;;;21.95;12.15;;;;;;;5.73;100.00;93969.09;5063398;28;20024;-62
2023/03/21 07:00:26;;;;;;;12.32;7.05;;;;;;;5.57;100.00;93967.50;5048783;28;20040;-62
2023/03/21 07:02:53;;;;;;;12.70;7.40;;;;;;;5.86;100.00;93973.03;5062733;28;20477;-63
2023/03/21 07:05:20;;;;;;;19.25;10.10;;;;;;;5.97;100.00;93968.41;5060782;28;20989;-65
2023/03/21 07:07:47;;;;;;;13.93;7.60;;;;;;;6.04;100.00;93973.13;5049004;28;20428;-63
2023/03/21 07:10:14;;;;;;;16.23;8.57;;;;;;;6.29;100.00;93970.44;5036918;28;20049;-65
2023/03/21 07:12:41;;;;;;;13.23;7.30;;;;;;;6.17;100.00;93968.84;5056124;28;20037;-62
2023/03/21 07:15:09;;;;;;;34.30;13.40;;;;;;;5.96;100.00;93966.88;5068092;28;20222;-62
2023/03/21 07:17:36;;;;;;;11.63;7.38;;;;;;;6.35;100.00;93962.66;5057073;28;20513;-63
2023/03/21 07:20:07;;;;;;;17.05;9.13;;;;;;;6.55;100.00;93965.81;5064587;28;20048;-62
2023/03/21 07:22:34;;;;;;;21.25;10.90;;;;;;;6.89;100.00;93965.44;5068846;28;20043;-62
2023/03/21 07:25:01;;;;;;;20.65;10.25;;;;;;;7.00;100.00;93964.25;5067064;28;20047;-63
2023/03/21 07:27:31;;;;;;;15.00;8.23;;;;;;;7.67;100.00;93952.81;5068924;28;20036;-63
2023/03/21 07:29:58;;;;;;;12.85;6.80;;;;;;;9.65;100.00;93954.91;5056497;28;20082;-62
2023/03/21 07:32:28;;;;;;;9.93;6.63;;;;;;;12.77;98.02;93952.41;5048888;28;20082;-62
2023/03/21 07:34:55;;;;;;;9.93;6.53;;;;;;;12.76;84.16;93948.88;5048335;28;20089;-62
2023/03/21 07:37:22;;;;;;;9.98;6.50;;;;;;;11.70;84.40;93950.66;5065555;28;20040;-63
2023/03/21 07:39:50;;;;;;;12.27;6.97;;;;;;;12.71;85.23;93948.59;5078362;28;20067;-61
2023/03/21 07:42:17;;;;;;;10.02;6.72;;;;;;;16.87;68.41;93940.66;5065169;28;20047;-62
2023/03/21 07:44:44;;;;;;;11.23;5.93;;;;;;;17.51;60.23;93943.63;5048678;28;20106;-63
2023/03/21 07:47:11;;;;;;;9.25;5.78;;;;;;;17.02;55.72;93941.63;5063765;28;20043;-63
2023/03/21 07:49:38;;;;;;;9.27;5.85;;;;;;;16.38;58.43;93939.31;5072388;28;20040;-62
2023/03/21 07:52:06;;;;;;;10.47;5.80;;;;;;;16.58;56.72;93938.97;5075950;28;20039;-66
2023/03/21 07:54:33;;;;;;;8.23;5.60;;;;;;;15.17;62.28;93934.78;5072101;28;20157;-61
2023/03/21 07:57:00;;;;;;;10.40;6.00;;;;;;;16.37;59.92;93941.31;5070458;28;20040;-65
2023/03/21 07:59:26;;;;;;;9.07;5.63;;;;;;;17.45;56.56;93928.81;5070497;28;20028;-63
2023/03/21 08:01:53;;;;;;;10.75;7.53;;;;;;;18.56;52.03;93939.91;5072258;28;20093;-62
2023/03/21 08:04:20;;;;;;;8.87;5.93;;;;;;;18.67;50.74;93939.41;5056950;28;20412;-61
2023/03/21 08:06:46;;;;;;;8.65;5.95;;;;;;;18.65;49.85;93933.53;5064011;28;20110;-63
2023/03/21 08:09:13;;;;;;;11.00;7.00;;;;;;;18.96;47.90;93936.09;5064583;28;20047;-63
2023/03/21 08:11:40;;;;;;;8.70;5.78;;;;;;;20.19;45.42;93922.50;5053553;28;20480;-62
2023/03/21 08:14:06;;;;;;;7.40;4.55;;;;;;;21.21;42.06;93928.56;5063631;28;20055;-66
2023/03/21 08:16:33;;;;;;;6.20;4.20;;;;;;;22.06;38.38;93922.06;5052935;28;20470;-62
2023/03/21 08:19:00;;;;;;;5.97;4.20;;;;;;;19.66;41.57;93923.97;5061691;28;20113;-62
2023/03/21 08:21:27;;;;;;;6.93;4.10;;;;;;;19.89;41.58;93920.41;5067465;28;20063;-65
2023/03/21 08:23:53;;;;;;;6.28;4.03;;;;;;;19.67;42.61;93923.50;5061124;28;20037;-63
2023/03/21 08:26:23;;;;;;;6.30;4.30;;;;;;;22.70;37.64;93917.41;5057224;28;20428;-62
2023/03/21 08:28:51;;;;;;;7.20;4.70;;;;;;;19.67;40.43;93917.16;5071808;28;20485;-65
2023/03/21 08:31:19;;;;;;;7.35;4.28;;;;;;;19.80;41.29;93917.72;5071302;28;20492;-62
2023/03/21 08:33:46;;;;;;;6.22;4.60;;;;;;;19.02;41.91;93911.97;5056550;28;20047;-62
2023/03/21 08:36:13;;;;;;;7.22;5.30;;;;;;;17.98;45.14;93918.69;5071358;28;20048;-63
2023/03/21 08:38:39;;;;;;;6.28;4.80;;;;;;;17.96;45.13;93919.16;5072606;28;20033;-62
2023/03/21 08:41:06;;;;;;;6.70;4.50;;;;;;;19.67;42.20;93906.78;5070954;28;20041;-62
2023/03/21 08:43:33;;;;;;;6.53;4.85;;;;;;;21.30;39.47;93905.31;5071382;28;20381;-66
2023/03/21 08:46:02;;;;;;;6.95;4.50;;;;;;;21.03;37.99;93910.00;5059145;28;20044;-63
2023/03/21 08:48:29;;;;;;;5.28;4.28;;;;;;;19.71;40.78;93903.84;5060852;28;20040;-62
2023/03/21 08:50:59;;;;;;;6.55;4.45;;;;;;;19.23;41.68;93909.38;5078268;28;20490;-66
2023/03/21 08:53:26;;;;;;;6.30;4.40;;;;;;;17.17;47.11;93903.78;5071561;28;20036;-62
2023/03/21 08:55:52;;;;;;;6.70;4.65;;;;;;;17.12;46.18;93909.16;5071259;28;20047;-63
2023/03/21 08:58:19;;;;;;;5.55;4.50;;;;;;;16.76;47.78;93907.78;5055315;28;20087;-61
2023/03/21 09:00:46;;;;;;;4.93;4.10;;;;;;;19.98;42.28;93905.66;5070583;28;20043;-62
2023/03/21 09:03:13;;;;;;;5.82;4.55;;;;;;;18.97;42.37;93907.03;5067107;28;20045;-64
2023/03/21 09:05:40;;;;;;;5.73;4.37;;;;;;;17.75;45.83;93915.28;5051105;28;20033;-63
2023/03/21 09:08:06;;;;;;;6.28;4.20;;;;;;;17.98;45.29;93919.47;5064104;28;20052;-64
2023/03/21 09:10:33;;;;;;;5.55;4.68;;;;;;;18.82;44.12;93908.97;5059579;28;20040;-62
2023/03/21 09:13:00;;;;;;;5.68;3.95;;;;;;;19.04;42.41;93914.28;5068919;28;20054;-62
2023/03/21 09:15:28;;;;;;;5.65;4.40;;;;;;;17.12;45.65;93921.06;5070714;28;20393;-65
2023/03/21 09:17:57;;;;;;;5.80;4.30;;;;;;;17.43;45.87;93916.66;5070012;28;20101;-64
2023/03/21 09:20:29;;;;;;;5.60;4.30;;;;;;;16.59;47.45;93918.34;5070505;28;20487;-64
2023/03/21 09:22:58;;;;;;;6.88;4.30;;;;;;;17.17;47.56;93917.66;5058134;28;20049;-63
2023/03/21 09:25:29;;;;;;;5.68;4.00;;;;;;;17.56;45.28;93911.72;5050727;28;20040;-62
2023/03/21 09:28:03;;;;;;;6.13;4.60;;;;;;;16.08;48.19;93916.69;5063928;28;20058;-61
2023/03/21 09:30:32;;;;;;;7.43;4.60;;;;;;;16.37;48.17;93910.84;5057160;28;20047;-63
2023/03/21 09:33:05;;;;;;;5.60;4.30;;;;;;;16.64;48.26;93915.00;5057186;28;20484;-63
2023/03/21 09:35:32;;;;;;;6.57;4.50;;;;;;;16.94;48.44;93918.19;5068237;28;20040;-62
2023/03/21 09:38:00;;;;;;;7.07;4.40;;;;;;;16.84;48.44;93914.66;5064340;28;20466;-63
2023/03/21 09:40:45;;;;;;;6.65;4.00;;;;;;;15.63;49.83;93917.81;5070169;28;20514;-62
2023/03/21 09:43:31;;;;;;;6.70;4.30;;;;;;;15.94;49.20;93917.19;5068319;28;20048;-63
2023/03/21 09:46:26;;;;;;;5.82;4.53;;;;;;;14.62;53.15;93914.03;5058167;28;20490;-61
2023/03/21 09:49:08;;;;;;;5.93;4.30;;;;;;;15.16;53.10;93913.09;5059537;28;20046;-62
2023/03/21 09:51:45;;;;;;;6.80;4.50;;;;;;;14.66;54.87;93920.22;5077291;28;20835;-66
2023/03/21 09:54:21;;;;;;;6.63;4.57;;;;;;;15.37;54.89;93912.41;5054492;28;20056;-62
2023/03/21 09:56:51;;;;;;;5.40;4.30;;;;;;;15.06;54.92;93915.00;5063880;28;20037;-62
2023/03/21 09:59:28;;;;;;;6.20;4.40;;;;;;;15.37;53.93;93911.59;5062902;28;20032;-65
2023/03/21 10:01:57;;;;;;;8.05;4.60;;;;;;;14.98;54.93;93908.91;5061266;28;20033;-60
2023/03/21 10:04:23;;;;;;;6.40;4.63;;;;;;;15.06;54.50;93905.94;5063353;28;20052;-63
2023/03/21 10:06:58;;;;;;;6.45;4.40;;;;;;;15.25;54.71;93907.69;5069901;28;20040;-62
2023/03/21 10:09:27;;;;;;;5.97;4.30;;;;;;;15.37;54.16;93897.78;5068409;28;20745;-62
2023/03/21 10:12:11;;;;;;;6.97;4.45;;;;;;;14.60;55.99;93905.41;5049642;28;20041;-63
2023/03/21 10:14:42;;;;;;;7.13;4.75;;;;;;;15.02;56.19;93903.28;5049018;28;20377;-65
2023/03/21 10:17:41;;;;;;;6.22;4.60;;;;;;;15.09;55.91;93907.78;5068939;28;20152;-62
2023/03/21 10:20:41;;;;;;;8.43;4.43;;;;;;;15.49;55.23;93896.19;5068752;28;20085;-61
2023/03/21 10:23:15;;;;;;;5.87;3.93;;;;;;;15.01;55.82;93895.44;5069183;28;20059;-61
2023/03/21 10:25:47;;;;;;;5.78;4.38;;;;;;;14.45;57.76;93894.78;5069742;28;20090;-61
2023/03/21 10:28:19;;;;;;;7.85;4.57;;;;;;;14.24;59.06;93898.94;5069084;28;20086;-61
2023/03/21 10:30:57;;;;;;;6.90;4.70;;;;;;;14.45;58.59;93894.03;5068119;28;20040;-63
2023/03/21 10:33:34;;;;;;;6.03;4.20;;;;;;;15.02;57.18;93889.47;5068560;28;21695;-63
2023/03/21 10:36:05;;;;;;;6.57;5.00;;;;;;;14.43;58.74;93897.22;5055410;28;20090;-65
2023/03/21 10:38:34;;;;;;;7.43;5.00;;;;;;;14.91;57.01;93892.59;5057418;28;20037;-61
2023/03/21 10:41:00;;;;;;;5.97;4.53;;;;;;;15.91;54.78;93899.47;5067784;28;20105;-61
2023/03/21 10:43:28;;;;;;;6.28;4.45;;;;;;;14.58;57.54;93894.81;5048032;28;20113;-62
2023/03/21 10:45:56;;;;;;;6.10;4.13;;;;;;;14.58;57.26;93895.56;5063601;28;20046;-61
2023/03/21 10:48:23;;;;;;;6.57;4.07;;;;;;;14.54;57.16;93899.63;5068990;28;20117;-65
2023/03/21 10:50:53;;;;;;;6.15;4.50;;;;;;;15.15;56.33;93890.22;5072814;28;20041;-63
2023/03/21 10:53:35;;;;;;;5.30;3.83;;;;;;;14.58;56.77;93897.56;5068429;28;20439;-64
2023/03/21 10:56:08;;;;;;;6.90;4.50;;;;;;;14.69;57.39;93892.50;5068601;28;20039;-61
2023/03/21 10:58:41;;;;;;;6.55;4.13;;;;;;;14.84;56.00;93895.56;5054093;28;20037;-64
2023/03/21 11:01:13;;;;;;;6.17;4.60;;;;;;;14.71;57.87;93884.53;5068629;28;20036;-62
2023/03/21 11:03:47;;;;;;;5.72;4.07;;;;;;;14.75;56.35;93893.50;5051879;28;20385;-61
2023/03/21 11:06:25;;;;;;;9.27;5.43;;;;;;;15.01;56.31;93881.63;5048667;28;20048;-61
2023/03/21 11:09:16;;;;;;;6.03;4.30;;;;;;;14.60;58.80;93888.84;5056108;28;20045;-62
2023/03/21 11:11:51;;;;;;;6.93;4.30;;;;;;;14.21;61.06;93879.75;5068306;28;20208;-61
2023/03/21 11:14:35;;;;;;;5.47;3.70;;;;;;;14.51;58.29;93886.72;5068618;28;20033;-63
2023/03/21 11:17:19;;;;;;;6.05;3.80;;;;;;;14.69;57.05;93883.41;5054569;28;20032;-61
2023/03/21 11:20:09;;;;;;;9.52;4.13;;;;;;;14.89;55.81;93872.91;5068341;28;20041;-63
2023/03/21 11:22:39;;;;;;;6.20;4.00;;;;;;;15.03;56.98;93876.41;5069243;28;20731;-61
2023/03/21 11:25:20;;;;;;;5.40;3.80;;;;;;;15.43;54.85;93870.34;5058838;28;20384;-61
2023/03/21 11:27:49;;;;;;;5.03;3.50;;;;;;;16.27;53.40;93866.94;5073081;28;20423;-64
2023/03/21 11:30:21;;;;;;;5.40;3.85;;;;;;;16.48;51.51;93870.88;5057704;28;20043;-62
2023/03/21 11:33:02;;;;;;;5.10;3.75;;;;;;;16.02;51.60;93870.63;5072917;28;20462;-61
2023/03/21 11:35:35;;;;;;;6.60;3.40;;;;;;;15.50;52.09;93862.56;5063637;28;20809;-62
2023/03/21 11:38:02;;;;;;;4.95;3.70;;;;;;;16.33;51.38;93868.66;5058707;28;20040;-63
2023/03/21 11:40:34;;;;;;;5.97;3.50;;;;;;;16.21;51.36;93863.22;5065403;28;20041;-66
2023/03/21 11:43:02;;;;;;;4.78;3.38;;;;;;;15.78;51.68;93863.56;5066959;28;20274;-63
2023/03/21 11:45:32;;;;;;;5.10;3.88;;;;;;;15.74;52.24;93853.88;5070880;28;20044;-62
2023/03/21 11:48:01;;;;;;;5.57;3.40;;;;;;;15.93;51.53;93849.97;5066401;28;20495;-62
2023/03/21 11:50:37;;;;;;;5.57;3.70;;;;;;;15.38;52.27;93846.81;5071272;28;20036;-62